Time;durP1;ratioP1;P1;durP2;ratioP2;P2;SDS_P1;SDS_P2;PMS_P1;PMS_P2;Temp;Humidity;BMP_temperature;BMP_pressure;BME280_temperature;BME280_humidity;BME280_pressure;Samples;Min_cycle;Max_cycle;Signal;HPM_P1;HPM_P2
2022/01/10 00:00:16;;;;;;;34.97;10.95;;;2.30;99.90;;;;;;4963777;28;20201;-74
2022/01/10 00:02:44;;;;;;;32.55;11.32;;;2.30;99.90;;;;;;4961467;28;20228;-73
2022/01/10 00:05:11;;;;;;;24.80;10.93;;;2.20;99.90;;;;;;4978867;28;20243;-73
2022/01/10 00:07:36;;;;;;;28.45;11.18;;;2.20;99.90;;;;;;4995973;28;20227;-72
2022/01/10 00:10:06;;;;;;;32.80;12.17;;;2.20;99.90;;;;;;4980136;28;20212;-72
2022/01/10 00:12:31;;;;;;;29.48;13.30;;;2.30;99.90;;;;;;4996793;28;20585;-74
2022/01/10 00:14:57;;;;;;;29.73;11.67;;;2.60;99.90;;;;;;4979658;28;20268;-72
2022/01/10 00:17:23;;;;;;;29.67;11.23;;;2.50;99.90;;;;;;4978765;28;20264;-73
2022/01/10 00:19:48;;;;;;;28.53;9.40;;;2.60;99.90;;;;;;4995366;28;20196;-72
2022/01/10 00:22:14;;;;;;;28.60;10.40;;;2.60;99.90;;;;;;4995286;28;20326;-74
2022/01/10 00:24:39;;;;;;;33.10;11.33;;;2.50;99.90;;;;;;4994946;28;20185;-72
2022/01/10 00:27:05;;;;;;;27.27;11.00;;;2.40;99.90;;;;;;4994928;28;20212;-72
2022/01/10 00:29:31;;;;;;;33.57;12.87;;;2.20;99.90;;;;;;4994007;28;20292;-73
2022/01/10 00:31:59;;;;;;;28.73;12.10;;;2.10;99.90;;;;;;4995296;28;20181;-72
2022/01/10 00:34:26;;;;;;;39.67;13.00;;;2.00;99.90;;;;;;4994446;28;20181;-73
2022/01/10 00:36:52;;;;;;;28.85;10.75;;;1.90;99.90;;;;;;4977392;28;20196;-72
2022/01/10 00:39:18;;;;;;;40.60;15.75;;;1.80;99.90;;;;;;4994209;28;20173;-72
2022/01/10 00:41:47;;;;;;;30.63;12.90;;;1.90;99.90;;;;;;4994090;28;20227;-73
2022/01/10 00:44:14;;;;;;;35.90;11.07;;;1.90;99.90;;;;;;4994025;28;20182;-71
2022/01/10 00:46:40;;;;;;;27.15;11.07;;;1.90;99.90;;;;;;4993720;28;20263;-72
2022/01/10 00:49:08;;;;;;;31.47;11.80;;;1.90;99.90;;;;;;4994157;28;20229;-74
2022/01/10 00:51:34;;;;;;;28.92;12.20;;;1.90;99.90;;;;;;4994293;28;20812;-72
2022/01/10 00:54:00;;;;;;;35.00;12.07;;;1.90;99.90;;;;;;4993828;28;20177;-72
2022/01/10 00:56:26;;;;;;;28.95;13.18;;;1.80;99.90;;;;;;4994059;28;20436;-71
2022/01/10 00:58:52;;;;;;;35.77;11.67;;;1.80;99.90;;;;;;4993232;28;20660;-72
2022/01/10 01:01:19;;;;;;;34.63;12.50;;;1.80;99.90;;;;;;4993155;28;21022;-72
2022/01/10 01:03:46;;;;;;;50.20;12.55;;;1.80;99.90;;;;;;4993631;28;20174;-72
2022/01/10 01:06:14;;;;;;;34.65;12.73;;;1.80;99.90;;;;;;4995807;28;20184;-73
2022/01/10 01:08:41;;;;;;;34.47;13.02;;;1.70;99.90;;;;;;5004542;28;20208;-72
2022/01/10 01:14:05;;;;;;;32.47;12.35;;;1.70;99.90;;;;;;4986685;28;20185;-73
2022/01/10 01:19:53;;;;;;;32.95;12.55;;;1.80;99.90;;;;;;4997076;28;20187;-73
2022/01/10 01:24:43;;;;;;;41.35;13.52;;;1.80;99.90;;;;;;5009349;28;20200;-75
2022/01/10 01:27:09;;;;;;;39.93;14.30;;;1.70;99.90;;;;;;4990826;28;20173;-73
2022/01/10 01:29:35;;;;;;;36.27;11.80;;;1.60;99.90;;;;;;4993631;28;20216;-71
2022/01/10 01:32:00;;;;;;;28.63;11.43;;;1.60;99.90;;;;;;4994030;28;20207;-72
2022/01/10 01:34:26;;;;;;;43.77;13.80;;;1.70;99.90;;;;;;4994978;28;20207;-73
2022/01/10 01:36:54;;;;;;;32.60;12.80;;;1.60;99.90;;;;;;4994100;28;20180;-72
2022/01/10 01:39:24;;;;;;;36.80;13.48;;;1.50;99.90;;;;;;4993460;28;20417;-72
2022/01/10 01:42:00;;;;;;;24.70;12.00;;;1.50;99.90;;;;;;4993565;28;20177;-72
2022/01/10 01:44:25;;;;;;;38.80;12.15;;;1.50;99.90;;;;;;4993668;28;20179;-72
2022/01/10 01:46:51;;;;;;;29.40;13.70;;;1.50;99.90;;;;;;4993053;28;20648;-73
2022/01/10 01:49:16;;;;;;;32.30;12.40;;;1.40;99.90;;;;;;4993934;28;20259;-74
2022/01/10 01:51:42;;;;;;;44.70;12.40;;;1.40;99.90;;;;;;4993751;28;20678;-72
2022/01/10 01:54:09;;;;;;;24.83;11.17;;;1.40;99.90;;;;;;4993784;28;20177;-72
2022/01/10 01:56:36;;;;;;;26.27;11.38;;;1.40;99.90;;;;;;4993556;28;20243;-73
2022/01/10 01:59:02;;;;;;;30.95;11.80;;;1.60;99.90;;;;;;4993992;28;20178;-74
2022/01/10 02:01:28;;;;;;;27.50;11.05;;;1.50;99.90;;;;;;4993920;28;20685;-72
2022/01/10 02:03:54;;;;;;;34.83;12.00;;;1.50;99.90;;;;;;4993140;28;20259;-72
2022/01/10 02:06:19;;;;;;;37.53;12.20;;;1.60;99.90;;;;;;4977934;28;20803;-72
2022/01/10 02:08:45;;;;;;;35.03;12.70;;;1.60;99.90;;;;;;4996340;28;20183;-73
2022/01/10 02:11:13;;;;;;;25.77;11.57;;;1.60;99.90;;;;;;4996601;28;20244;-73
2022/01/10 02:13:40;;;;;;;30.23;12.45;;;1.60;99.90;;;;;;4996634;28;20182;-71
2022/01/10 02:16:08;;;;;;;49.25;13.70;;;1.50;99.90;;;;;;4996401;28;20577;-71
2022/01/10 02:18:34;;;;;;;29.23;11.85;;;1.50;99.90;;;;;;4996314;28;20204;-71
2022/01/10 02:21:03;;;;;;;31.88;11.30;;;1.40;99.90;;;;;;4996553;28;20625;-73
2022/01/10 02:23:30;;;;;;;33.53;12.57;;;1.50;99.90;;;;;;4996607;28;20181;-72
2022/01/10 02:25:56;;;;;;;28.63;13.80;;;1.70;99.90;;;;;;4997856;28;20208;-72
2022/01/10 02:28:23;;;;;;;38.22;12.00;;;1.80;99.90;;;;;;4999433;28;20642;-73
2022/01/10 02:30:55;;;;;;;26.58;11.93;;;1.90;99.90;;;;;;4996246;28;20216;-72
2022/01/10 02:33:21;;;;;;;43.55;12.20;;;2.20;99.90;;;;;;4999248;28;20165;-72
2022/01/10 02:36:29;;;;;;;28.60;11.00;;;2.20;99.90;;;;;;4998635;28;20181;-74
2022/01/10 02:38:36;;;;;;;30.25;13.18;;;2.30;99.90;;;;;;4985238;28;20585;-73
2022/01/10 02:41:02;;;;;;;38.00;12.90;;;2.30;99.90;;;;;;4996773;28;20201;-71
2022/01/10 02:43:28;;;;;;;45.65;14.13;;;2.40;99.90;;;;;;4996389;28;20173;-72
2022/01/10 02:45:56;;;;;;;29.00;12.60;;;2.30;99.90;;;;;;4997573;28;20180;-72
2022/01/10 02:48:22;;;;;;;38.55;12.77;;;2.10;99.90;;;;;;5003089;28;20175;-72
2022/01/10 02:50:48;;;;;;;33.47;10.95;;;2.00;99.90;;;;;;5001203;28;20213;-73
2022/01/10 02:53:13;;;;;;;40.00;13.17;;;2.00;99.90;;;;;;5001538;28;20223;-73
2022/01/10 02:55:39;;;;;;;29.63;13.90;;;2.00;99.90;;;;;;5000120;28;20413;-72
2022/01/10 02:58:04;;;;;;;36.00;12.40;;;1.90;99.90;;;;;;4997862;28;20315;-73
2022/01/10 03:00:30;;;;;;;33.07;11.90;;;2.00;99.90;;;;;;4978924;28;20204;-73
2022/01/10 03:02:58;;;;;;;35.57;13.87;;;1.90;99.90;;;;;;4995315;28;20549;-72
2022/01/10 03:05:25;;;;;;;32.22;12.20;;;2.00;99.90;;;;;;4995120;28;20264;-71
2022/01/10 03:07:56;;;;;;;35.10;12.98;;;2.00;99.90;;;;;;4995472;28;20520;-72
2022/01/10 03:10:22;;;;;;;31.42;13.55;;;2.00;99.90;;;;;;4977526;28;20303;-73
2022/01/10 03:12:48;;;;;;;29.40;12.30;;;2.10;99.90;;;;;;4995233;28;20200;-72
2022/01/10 03:15:14;;;;;;;29.55;12.45;;;2.10;99.90;;;;;;4994957;28;20181;-73
2022/01/10 03:17:40;;;;;;;29.27;11.48;;;2.20;99.90;;;;;;4994899;28;20192;-72
2022/01/10 03:20:08;;;;;;;34.10;12.65;;;2.30;99.90;;;;;;4994900;28;20282;-72
2022/01/10 03:22:34;;;;;;;36.03;12.35;;;2.40;99.90;;;;;;4994731;28;20209;-71
2022/01/10 03:25:00;;;;;;;28.20;11.93;;;2.40;99.90;;;;;;4994948;28;20208;-72
2022/01/10 03:27:26;;;;;;;33.67;13.70;;;2.50;99.90;;;;;;4994665;28;20216;-72
2022/01/10 03:29:53;;;;;;;27.65;13.05;;;2.50;99.90;;;;;;4994643;28;20204;-72
2022/01/10 03:32:18;;;;;;;33.88;12.85;;;2.50;99.90;;;;;;4994819;28;20196;-72
2022/01/10 03:34:44;;;;;;;32.27;14.83;;;2.60;99.90;;;;;;4994656;28;20173;-72
2022/01/10 03:37:10;;;;;;;37.53;12.27;;;2.70;99.90;;;;;;4994513;28;20174;-72
2022/01/10 03:39:36;;;;;;;29.08;12.32;;;2.60;99.90;;;;;;4994730;28;20193;-72
2022/01/10 03:42:03;;;;;;;37.25;14.50;;;2.70;99.90;;;;;;4994610;28;20181;-72
2022/01/10 03:44:29;;;;;;;49.60;15.20;;;2.90;99.90;;;;;;4994318;28;20539;-74
2022/01/10 03:46:56;;;;;;;36.13;12.97;;;2.90;99.90;;;;;;4994695;28;20177;-71
2022/01/10 03:49:23;;;;;;;39.33;13.70;;;3.00;99.90;;;;;;4994094;28;20288;-72
2022/01/10 03:51:48;;;;;;;29.10;12.57;;;2.90;99.90;;;;;;4994342;28;20174;-73
2022/01/10 03:54:14;;;;;;;40.20;13.90;;;2.80;99.90;;;;;;4994369;28;20653;-73
2022/01/10 03:56:39;;;;;;;41.10;13.93;;;2.70;99.90;;;;;;4994349;28;20201;-72
2022/01/10 03:59:05;;;;;;;42.47;16.00;;;2.50;99.90;;;;;;4994265;28;20676;-72
2022/01/10 04:01:31;;;;;;;32.23;12.20;;;2.50;99.90;;;;;;4994172;28;20345;-71
2022/01/10 04:03:57;;;;;;;25.33;13.07;;;2.40;99.90;;;;;;4993949;28;20260;-72
2022/01/10 04:06:23;;;;;;;28.23;12.63;;;2.40;99.90;;;;;;4993889;28;20264;-72
2022/01/10 04:08:49;;;;;;;30.43;12.23;;;2.30;99.90;;;;;;4993736;28;20612;-72
2022/01/10 04:11:15;;;;;;;28.13;14.02;;;2.20;99.90;;;;;;4993925;28;20514;-72
2022/01/10 04:13:41;;;;;;;27.77;14.00;;;2.20;99.90;;;;;;4994151;28;20637;-72
2022/01/10 04:16:07;;;;;;;45.23;13.30;;;2.20;99.90;;;;;;4994686;28;20177;-73
2022/01/10 04:18:33;;;;;;;37.73;13.53;;;2.00;99.90;;;;;;4993768;28;20450;-73
2022/01/10 04:20:59;;;;;;;32.63;13.40;;;1.90;99.90;;;;;;4993831;28;20459;-72
2022/01/10 04:23:25;;;;;;;30.40;14.07;;;1.90;99.90;;;;;;4993845;28;20420;-72
2022/01/10 04:25:50;;;;;;;37.10;13.50;;;1.90;99.90;;;;;;4993991;28;20424;-72
2022/01/10 04:28:16;;;;;;;32.83;14.40;;;1.80;99.90;;;;;;4993179;28;20181;-73
2022/01/10 04:30:42;;;;;;;32.97;12.73;;;1.70;99.90;;;;;;4994031;28;20261;-72
2022/01/10 04:33:10;;;;;;;29.88;11.98;;;1.70;99.90;;;;;;4993560;28;20975;-71
2022/01/10 04:35:36;;;;;;;32.75;13.43;;;1.70;99.90;;;;;;4993641;28;20166;-72
2022/01/10 04:38:02;;;;;;;26.40;12.60;;;1.60;99.90;;;;;;4993188;28;20179;-70
2022/01/10 04:40:28;;;;;;;36.95;13.70;;;1.70;99.90;;;;;;4975816;28;20193;-70
2022/01/10 04:42:54;;;;;;;40.10;12.87;;;1.70;99.90;;;;;;4993292;28;20239;-72
2022/01/10 04:45:20;;;;;;;25.98;13.50;;;1.70;99.90;;;;;;4993287;28;20180;-72
2022/01/10 04:47:46;;;;;;;30.03;12.17;;;1.70;99.90;;;;;;4993340;28;20330;-73
2022/01/10 04:50:35;;;;;;;39.80;15.10;;;1.60;99.90;;;;;;4993209;28;20464;-73
2022/01/10 04:52:57;;;;;;;37.25;12.38;;;1.70;99.90;;;;;;4993087;28;20181;-71
2022/01/10 04:55:23;;;;;;;32.90;12.60;;;1.70;99.90;;;;;;4993336;28;20177;-70
2022/01/10 04:57:49;;;;;;;29.10;12.77;;;1.70;99.90;;;;;;4993361;28;20173;-74
2022/01/10 05:00:16;;;;;;;44.27;12.60;;;1.70;99.90;;;;;;4976127;28;20573;-71
2022/01/10 05:02:45;;;;;;;34.30;13.02;;;1.70;99.90;;;;;;4993267;28;20648;-73
2022/01/10 05:05:11;;;;;;;35.17;13.52;;;1.70;99.90;;;;;;4975528;28;20287;-73
2022/01/10 05:07:36;;;;;;;33.17;13.70;;;1.90;99.90;;;;;;4993153;28;20213;-71
2022/01/10 05:10:03;;;;;;;36.33;13.47;;;1.80;99.90;;;;;;4992833;28;20720;-71
2022/01/10 05:12:29;;;;;;;34.95;14.45;;;1.80;99.90;;;;;;4975680;28;20264;-71
2022/01/10 05:14:54;;;;;;;32.55;14.82;;;1.80;99.90;;;;;;4993368;28;20651;-72
2022/01/10 05:17:22;;;;;;;38.40;13.63;;;1.80;99.90;;;;;;4992932;28;20258;-72
2022/01/10 05:19:48;;;;;;;28.70;13.15;;;1.80;99.90;;;;;;4999911;28;20196;-73
2022/01/10 05:22:14;;;;;;;36.80;14.50;;;1.80;99.90;;;;;;4989833;28;20591;-72
2022/01/10 05:24:39;;;;;;;31.30;13.93;;;1.80;99.90;;;;;;4985600;28;20239;-72
2022/01/10 05:27:05;;;;;;;32.13;14.10;;;1.80;99.90;;;;;;4994156;28;20236;-72
2022/01/10 05:29:31;;;;;;;26.23;12.30;;;1.80;99.90;;;;;;4992776;28;20212;-73
2022/01/10 05:31:57;;;;;;;28.13;12.37;;;1.80;99.90;;;;;;4998715;28;20199;-73
2022/01/10 05:34:22;;;;;;;35.50;13.40;;;1.70;99.90;;;;;;4995176;28;20415;-75
2022/01/10 05:36:48;;;;;;;34.43;15.03;;;1.60;99.90;;;;;;4997771;28;20218;-73
2022/01/10 05:39:14;;;;;;;36.27;14.43;;;1.50;99.90;;;;;;5000961;28;20405;-73
2022/01/10 05:41:40;;;;;;;33.40;13.70;;;1.50;99.90;;;;;;5006544;28;20268;-75
2022/01/10 05:44:05;;;;;;;41.63;14.07;;;1.50;99.90;;;;;;5006720;28;20428;-73
2022/01/10 05:46:34;;;;;;;39.63;13.83;;;1.50;99.90;;;;;;5005349;28;20180;-73
2022/01/10 05:49:01;;;;;;;34.03;14.15;;;1.50;99.90;;;;;;4984088;28;20714;-72
2022/01/10 05:51:32;;;;;;;37.78;14.80;;;1.50;99.90;;;;;;5004530;28;20197;-71
2022/01/10 05:53:58;;;;;;;42.47;15.85;;;1.50;99.90;;;;;;5007260;28;20688;-72
2022/01/10 05:56:24;;;;;;;31.48;15.60;;;1.60;99.90;;;;;;5004931;28;20181;-73
2022/01/10 05:58:50;;;;;;;30.67;14.83;;;1.60;99.90;;;;;;4998389;28;20193;-73
2022/01/10 06:01:16;;;;;;;34.57;14.40;;;1.50;99.90;;;;;;5001450;28;20454;-71
2022/01/10 06:03:41;;;;;;;42.83;14.40;;;1.40;99.90;;;;;;4998712;28;20416;-72
2022/01/10 06:06:07;;;;;;;45.93;14.43;;;1.40;99.90;;;;;;4997138;28;20236;-71
2022/01/10 06:08:33;;;;;;;32.60;14.70;;;1.30;99.90;;;;;;4996690;28;20177;-71
2022/01/10 06:10:58;;;;;;;49.73;15.30;;;1.30;99.90;;;;;;4979875;28;20240;-72
2022/01/10 06:13:24;;;;;;;46.20;16.10;;;1.30;99.90;;;;;;4997236;28;20166;-72
2022/01/10 06:15:51;;;;;;;36.17;15.70;;;1.30;99.90;;;;;;4996588;28;20547;-72
2022/01/10 06:18:17;;;;;;;34.47;14.93;;;1.20;99.90;;;;;;4996140;28;20215;-71
2022/01/10 06:20:43;;;;;;;32.70;14.20;;;1.20;99.90;;;;;;4996851;28;20209;-73
2022/01/10 06:23:09;;;;;;;30.20;14.33;;;1.20;99.90;;;;;;4996701;28;20423;-71
2022/01/10 06:25:35;;;;;;;42.28;13.77;;;1.30;99.90;;;;;;4978913;28;20181;-73
2022/01/10 06:28:00;;;;;;;33.77;14.00;;;1.30;99.90;;;;;;4996142;28;20180;-72
2022/01/10 06:30:27;;;;;;;26.27;13.30;;;1.30;99.90;;;;;;4996563;28;20577;-71
2022/01/10 06:32:53;;;;;;;32.33;14.93;;;1.30;99.90;;;;;;4996955;28;20169;-72
2022/01/10 06:35:18;;;;;;;50.37;15.07;;;1.30;99.90;;;;;;4995844;28;20176;-73
2022/01/10 06:37:44;;;;;;;33.83;14.93;;;1.30;99.90;;;;;;4978326;28;20448;-72
2022/01/10 06:40:10;;;;;;;31.07;14.27;;;1.20;99.90;;;;;;4996051;28;20223;-73
2022/01/10 06:42:36;;;;;;;36.15;14.93;;;1.20;99.90;;;;;;4996292;28;20634;-72
2022/01/10 06:45:01;;;;;;;39.67;14.77;;;1.20;99.90;;;;;;4978629;28;20191;-73
2022/01/10 06:47:27;;;;;;;27.57;14.80;;;1.20;99.90;;;;;;4996119;28;20664;-74
2022/01/10 06:49:52;;;;;;;36.43;14.80;;;1.10;99.90;;;;;;4978491;28;20307;-74
2022/01/10 06:52:18;;;;;;;38.13;14.80;;;1.20;99.90;;;;;;4995654;28;20165;-73
2022/01/10 06:54:44;;;;;;;28.90;14.83;;;1.30;99.90;;;;;;4996256;28;20169;-73
2022/01/10 06:57:10;;;;;;;43.77;15.43;;;1.20;99.90;;;;;;4995933;28;20173;-73
2022/01/10 06:59:35;;;;;;;44.77;15.10;;;1.30;99.90;;;;;;4996759;28;20200;-74
2022/01/10 07:02:01;;;;;;;45.80;15.03;;;1.30;99.90;;;;;;4996018;28;20427;-73
2022/01/10 07:04:27;;;;;;;45.63;17.67;;;1.20;99.90;;;;;;4995894;28;20177;-73
2022/01/10 07:06:54;;;;;;;45.30;17.15;;;1.20;99.90;;;;;;4995561;28;20774;-73
2022/01/10 07:09:20;;;;;;;35.42;15.73;;;1.10;99.90;;;;;;4995022;28;20201;-72
2022/01/10 07:11:46;;;;;;;40.75;15.45;;;1.10;99.90;;;;;;4995647;28;20177;-71
2022/01/10 07:14:13;;;;;;;36.65;15.18;;;1.20;99.90;;;;;;4995494;28;20567;-73
2022/01/10 07:16:39;;;;;;;35.20;14.32;;;1.20;99.90;;;;;;4977931;28;20181;-72
2022/01/10 07:19:06;;;;;;;32.78;14.52;;;1.30;99.90;;;;;;4995465;28;20185;-72
2022/01/10 07:21:32;;;;;;;34.42;14.45;;;1.20;99.90;;;;;;4995389;28;20208;-71
2022/01/10 07:23:58;;;;;;;36.75;14.75;;;1.20;99.90;;;;;;4995622;28;20173;-71
2022/01/10 07:26:24;;;;;;;37.43;14.67;;;1.10;99.90;;;;;;4995181;28;20173;-72
2022/01/10 07:28:49;;;;;;;43.73;15.80;;;1.10;99.90;;;;;;4995265;28;20661;-72
2022/01/10 07:31:15;;;;;;;35.97;14.07;;;1.20;99.90;;;;;;4995186;28;20209;-72
2022/01/10 07:33:40;;;;;;;38.03;16.70;;;1.30;99.90;;;;;;4995038;28;20184;-72
2022/01/10 07:36:06;;;;;;;44.47;15.30;;;1.20;99.90;;;;;;4977391;28;20725;-71
2022/01/10 07:38:35;;;;;;;39.03;15.33;;;1.20;99.90;;;;;;4994820;28;20196;-72
2022/01/10 07:41:06;;;;;;;46.13;16.38;;;1.20;99.90;;;;;;4994919;28;20193;-72
2022/01/10 07:43:32;;;;;;;68.80;24.23;;;1.20;99.90;;;;;;4977466;28;20228;-73
2022/01/10 07:45:58;;;;;;;100.07;35.83;;;1.40;99.90;;;;;;4994735;28;20189;-72
2022/01/10 07:48:26;;;;;;;94.20;32.92;;;1.60;99.90;;;;;;4994657;28;20186;-73
2022/01/10 07:50:51;;;;;;;64.18;26.77;;;1.70;99.90;;;;;;4994626;28;20263;-73
2022/01/10 07:53:17;;;;;;;76.60;33.30;;;1.90;99.90;;;;;;4994350;28;20173;-72
2022/01/10 07:55:43;;;;;;;76.43;30.43;;;1.90;99.90;;;;;;4994511;28;20220;-73
2022/01/10 07:58:08;;;;;;;52.63;17.20;;;2.00;99.90;;;;;;4995312;28;20165;-72
2022/01/10 08:00:34;;;;;;;56.53;23.80;;;1.90;99.90;;;;;;4976756;28;20296;-71
2022/01/10 08:02:59;;;;;;;61.23;23.30;;;2.00;99.90;;;;;;4976642;28;20208;-73
2022/01/10 08:05:25;;;;;;;51.17;20.53;;;2.10;99.90;;;;;;4994438;28;20192;-72
2022/01/10 08:07:51;;;;;;;89.20;34.33;;;2.10;99.90;;;;;;4994170;28;20181;-71
2022/01/10 08:10:16;;;;;;;37.03;17.60;;;2.10;99.90;;;;;;4977030;28;20267;-72
2022/01/10 08:12:42;;;;;;;45.47;16.80;;;2.10;99.90;;;;;;4995049;28;20654;-72
2022/01/10 08:15:08;;;;;;;39.40;16.03;;;1.90;99.90;;;;;;4994540;28;20173;-72
2022/01/10 08:17:35;;;;;;;37.92;14.85;;;1.80;99.90;;;;;;4995045;28;20173;-73
2022/01/10 08:20:01;;;;;;;41.35;17.60;;;1.70;99.90;;;;;;4995228;28;20216;-73
2022/01/10 08:22:27;;;;;;;42.95;15.48;;;1.60;99.90;;;;;;4977789;28;20181;-72
2022/01/10 08:24:53;;;;;;;30.20;15.23;;;1.60;99.90;;;;;;4996436;28;20280;-72
2022/01/10 08:27:19;;;;;;;29.70;15.17;;;1.60;99.90;;;;;;4997499;28;20184;-72
2022/01/10 08:29:45;;;;;;;39.97;15.50;;;1.70;99.90;;;;;;4998691;28;20511;-73
2022/01/10 08:32:11;;;;;;;43.70;15.95;;;1.70;99.90;;;;;;4998629;28;20177;-72
2022/01/10 08:34:37;;;;;;;35.95;15.57;;;1.80;99.90;;;;;;4998232;28;20173;-72
2022/01/10 08:37:03;;;;;;;33.50;16.27;;;1.80;99.90;;;;;;4998580;28;20173;-73
2022/01/10 08:39:28;;;;;;;27.77;14.30;;;1.80;99.90;;;;;;4978447;28;20197;-72
2022/01/10 08:41:54;;;;;;;40.50;16.17;;;1.90;99.90;;;;;;4988138;28;20439;-72
2022/01/10 08:44:20;;;;;;;48.17;16.10;;;1.90;99.90;;;;;;4983180;28;20181;-72
2022/01/10 08:46:46;;;;;;;40.10;14.93;;;2.00;99.90;;;;;;5002530;28;20177;-72
2022/01/10 08:49:13;;;;;;;44.00;16.30;;;2.00;99.90;;;;;;5008935;28;20169;-74
2022/01/10 08:51:39;;;;;;;60.95;16.00;;;2.10;99.90;;;;;;5006678;28;20284;-73
2022/01/10 08:54:06;;;;;;;39.15;15.75;;;2.10;99.90;;;;;;5005638;28;20177;-72
2022/01/10 08:56:32;;;;;;;35.92;14.95;;;2.20;99.90;;;;;;5007044;28;20193;-72
2022/01/10 08:58:58;;;;;;;41.37;15.33;;;2.20;99.90;;;;;;5007676;28;20261;-72
2022/01/10 09:01:24;;;;;;;37.47;16.00;;;2.30;99.90;;;;;;5006472;28;20224;-72
2022/01/10 09:03:50;;;;;;;38.80;14.90;;;2.40;99.90;;;;;;5007868;28;20467;-72
2022/01/10 09:06:16;;;;;;;45.00;15.73;;;2.40;99.90;;;;;;5005609;28;20905;-73
2022/01/10 09:08:43;;;;;;;40.50;16.17;;;2.50;99.90;;;;;;5002314;28;20412;-72
2022/01/10 09:11:09;;;;;;;40.03;15.80;;;2.60;99.90;;;;;;5003582;28;20472;-72
2022/01/10 09:13:34;;;;;;;46.00;15.97;;;2.70;99.90;;;;;;4993709;28;20177;-72
2022/01/10 09:16:03;;;;;;;38.00;16.03;;;2.70;99.90;;;;;;4994275;28;20177;-71
2022/01/10 09:18:29;;;;;;;49.30;16.58;;;2.80;99.90;;;;;;4976610;28;20174;-71
2022/01/10 09:20:55;;;;;;;45.75;15.80;;;2.90;99.90;;;;;;4993850;28;20197;-72
2022/01/10 09:23:22;;;;;;;42.28;15.40;;;2.90;99.90;;;;;;4993675;28;20231;-73
2022/01/10 09:25:49;;;;;;;49.65;16.85;;;3.00;99.90;;;;;;4993759;28;20239;-73
2022/01/10 09:28:15;;;;;;;44.60;16.40;;;3.10;99.90;;;;;;4993843;28;20171;-72
2022/01/10 09:30:41;;;;;;;39.28;16.70;;;3.10;99.90;;;;;;4993034;28;20220;-73
2022/01/10 09:33:06;;;;;;;36.63;17.03;;;3.20;99.90;;;;;;4993629;28;20180;-72
2022/01/10 09:35:32;;;;;;;50.17;17.33;;;3.60;99.90;;;;;;4993329;28;20177;-72
2022/01/10 09:37:58;;;;;;;38.40;15.03;;;3.70;99.60;;;;;;4993076;28;20174;-72
2022/01/10 09:40:23;;;;;;;42.53;17.90;;;3.70;97.50;;;;;;4993586;28;20564;-72
2022/01/10 09:42:49;;;;;;;38.90;16.83;;;3.60;97.30;;;;;;4993939;28;20184;-71
2022/01/10 09:45:14;;;;;;;38.37;15.27;;;3.60;98.60;;;;;;4975760;28;20187;-72
2022/01/10 09:47:40;;;;;;;33.47;16.33;;;3.60;96.40;;;;;;4976076;28;20180;-72
2022/01/10 09:50:08;;;;;;;37.70;14.13;;;3.60;96.30;;;;;;4993358;28;20311;-72
2022/01/10 09:52:34;;;;;;;26.60;13.50;;;3.60;96.10;;;;;;4993491;28;20180;-73
2022/01/10 09:55:00;;;;;;;34.08;15.48;;;3.70;92.00;;;;;;4993452;28;20536;-71
2022/01/10 09:57:26;;;;;;;46.50;15.43;;;3.70;92.60;;;;;;4992854;28;20203;-71
2022/01/10 09:59:51;;;;;;;34.80;15.97;;;3.70;92.40;;;;;;4993458;28;20247;-72
2022/01/10 10:02:17;;;;;;;34.83;14.77;;;3.80;94.30;;;;;;4993996;28;20173;-73
2022/01/10 10:04:44;;;;;;;30.70;14.60;;;3.90;95.00;;;;;;4993791;28;20173;-72
2022/01/10 10:07:10;;;;;;;30.52;15.52;;;3.90;93.50;;;;;;4976149;28;20420;-71
2022/01/10 10:09:36;;;;;;;35.80;16.17;;;3.90;93.00;;;;;;4993895;28;20209;-73
2022/01/10 10:12:04;;;;;;;38.50;16.30;;;4.00;95.00;;;;;;4978826;28;20197;-72
2022/01/10 10:14:31;;;;;;;38.85;16.52;;;4.10;93.50;;;;;;5001132;28;20638;-72
2022/01/10 10:16:57;;;;;;;41.03;16.27;;;4.20;92.60;;;;;;5000219;28;20201;-72
2022/01/10 10:19:26;;;;;;;37.80;17.52;;;4.30;89.10;;;;;;4976466;28;20208;-73
2022/01/10 10:21:54;;;;;;;39.42;16.50;;;4.40;88.10;;;;;;4998518;28;20154;-73
2022/01/10 10:24:20;;;;;;;40.40;18.75;;;4.40;90.40;;;;;;5001418;28;20278;-72
2022/01/10 10:26:46;;;;;;;39.90;16.60;;;4.50;89.40;;;;;;4997262;28;20173;-72
2022/01/10 10:29:16;;;;;;;43.07;16.97;;;4.50;83.90;;;;;;5003955;28;20248;-71
2022/01/10 10:31:57;;;;;;;43.03;17.48;;;4.60;84.60;;;;;;4995556;28;20191;-75
2022/01/10 10:34:27;;;;;;;38.00;17.08;;;4.60;83.00;;;;;;5006761;28;20185;-72
2022/01/10 10:37:12;;;;;;;35.53;15.68;;;4.60;85.20;;;;;;4999214;28;20177;-71
2022/01/10 10:39:43;;;;;;;31.95;15.25;;;4.70;78.50;;;;;;4996711;28;20200;-70
2022/01/10 10:42:14;;;;;;;34.75;16.25;;;4.70;74.50;;;;;;4996095;28;20174;-71
2022/01/10 10:44:42;;;;;;;45.65;16.60;;;4.80;75.80;;;;;;4996020;28;20188;-73
2022/01/10 10:47:09;;;;;;;30.77;14.85;;;4.80;73.20;;;;;;4995885;28;20169;-71
2022/01/10 10:49:40;;;;;;;44.47;16.98;;;4.80;75.00;;;;;;4995942;28;20272;-73
2022/01/10 10:52:22;;;;;;;38.95;17.00;;;4.90;74.90;;;;;;4996490;28;20169;-73
2022/01/10 10:54:55;;;;;;;47.05;17.38;;;5.00;75.10;;;;;;4997039;28;20714;-73
2022/01/10 11:03:15;;;;;;;45.28;16.00;;;5.10;75.70;;;;;;4998779;28;20190;-72
2022/01/10 11:05:42;;;;;;;46.17;17.48;;;5.10;76.80;;;;;;5001065;28;20640;-73
2022/01/10 11:08:07;;;;;;;52.42;17.52;;;5.20;76.10;;;;;;4997121;28;20181;-71
2022/01/10 11:10:34;;;;;;;36.30;19.37;;;5.40;74.00;;;;;;4978376;28;20275;-72
2022/01/10 11:13:01;;;;;;;47.03;19.45;;;5.40;72.10;;;;;;4995361;28;20681;-71
2022/01/10 11:15:27;;;;;;;39.55;17.13;;;5.60;69.20;;;;;;4995375;28;20227;-72
2022/01/10 11:17:58;;;;;;;47.22;18.02;;;5.60;72.00;;;;;;4995492;28;20173;-72
2022/01/10 11:20:25;;;;;;;34.58;18.85;;;5.80;68.40;;;;;;4995201;28;20241;-72
2022/01/10 11:22:58;;;;;;;46.20;16.65;;;6.00;65.70;;;;;;4995765;28;20169;-71
2022/01/10 11:25:28;;;;;;;38.72;17.58;;;6.00;65.10;;;;;;4995586;28;20188;-72
2022/01/10 11:28:00;;;;;;;44.92;16.45;;;6.00;65.00;;;;;;4995570;28;20539;-72
2022/01/10 11:30:32;;;;;;;35.90;15.73;;;6.00;65.80;;;;;;4978986;28;20217;-72
2022/01/10 11:33:15;;;;;;;37.70;16.02;;;5.90;65.70;;;;;;4998161;28;20195;-72
2022/01/10 11:35:55;;;;;;;43.10;16.10;;;6.00;62.80;;;;;;4981967;28;20529;-71
2022/01/10 11:38:29;;;;;;;49.15;16.25;;;6.00;65.00;;;;;;4985876;28;20173;-71
2022/01/10 11:41:03;;;;;;;37.92;14.90;;;6.20;64.00;;;;;;5001214;28;20220;-73
2022/01/10 11:43:41;;;;;;;41.85;15.10;;;6.30;59.90;;;;;;5001240;28;20185;-73
2022/01/10 11:46:37;;;;;;;37.38;15.13;;;6.20;59.10;;;;;;5007358;28;20173;-72
2022/01/10 11:49:04;;;;;;;47.22;16.15;;;6.30;60.30;;;;;;4976423;28;20208;-72
2022/01/10 11:51:34;;;;;;;38.13;15.75;;;6.40;59.70;;;;;;4994908;28;20741;-74
2022/01/10 11:54:15;;;;;;;45.75;15.15;;;6.40;59.90;;;;;;4979192;28;20173;-72
2022/01/10 11:56:43;;;;;;;43.55;15.65;;;6.50;59.30;;;;;;4996051;28;20165;-72
2022/01/10 11:59:27;;;;;;;43.10;15.30;;;6.50;57.70;;;;;;4995505;28;20264;-71
2022/01/10 12:02:04;;;;;;;29.95;13.57;;;6.50;58.20;;;;;;4995093;28;20173;-72
2022/01/10 12:04:35;;;;;;;50.40;15.45;;;6.50;57.90;;;;;;4994654;28;20165;-73
2022/01/10 12:07:07;;;;;;;39.30;16.38;;;6.50;58.00;;;;;;4994270;28;20228;-72
2022/01/10 12:09:33;;;;;;;38.40;16.60;;;6.50;58.10;;;;;;4994785;28;20288;-74
2022/01/10 12:12:01;;;;;;;43.00;16.67;;;6.60;56.60;;;;;;4994855;28;20205;-72
2022/01/10 12:14:28;;;;;;;37.53;15.38;;;6.60;56.20;;;;;;4994961;28;20503;-72
2022/01/10 12:16:55;;;;;;;41.03;16.35;;;6.50;56.00;;;;;;4995055;28;20180;-73
2022/01/10 12:19:21;;;;;;;39.80;15.68;;;6.50;56.60;;;;;;4994289;28;20193;-72
2022/01/10 12:21:48;;;;;;;37.80;16.25;;;6.50;57.20;;;;;;4977036;28;20180;-72
2022/01/10 12:24:14;;;;;;;41.47;15.23;;;6.50;57.00;;;;;;4994163;28;20165;-72
2022/01/10 12:26:40;;;;;;;53.33;15.57;;;6.50;58.30;;;;;;4994287;28;20177;-73
2022/01/10 12:29:08;;;;;;;47.08;17.60;;;6.60;58.70;;;;;;4994130;28;20177;-72
2022/01/10 12:31:36;;;;;;;44.15;16.55;;;6.70;57.40;;;;;;4976655;28;20208;-73
2022/01/10 12:34:02;;;;;;;40.20;15.98;;;6.80;57.60;;;;;;4994247;28;20173;-72
2022/01/10 12:36:29;;;;;;;53.63;19.15;;;6.80;55.20;;;;;;4994132;28;20180;-73
2022/01/10 12:39:00;;;;;;;44.42;17.40;;;6.90;54.10;;;;;;4995485;28;20180;-72
2022/01/10 12:41:27;;;;;;;40.35;17.67;;;6.90;55.50;;;;;;4994868;28;20201;-73
2022/01/10 12:43:53;;;;;;;54.03;19.30;;;6.90;55.30;;;;;;4994537;28;20176;-73
2022/01/10 12:46:20;;;;;;;50.13;17.00;;;6.90;55.00;;;;;;4995382;28;20654;-74
2022/01/10 12:48:48;;;;;;;48.08;17.05;;;6.80;55.30;;;;;;4975901;28;20522;-73